createdAt,value
2022-09-21T00:01:16.191Z,8.25
2022-09-21T00:03:43.676Z,11.75
2022-09-21T00:06:13.777Z,13.32
2022-09-21T00:08:40.491Z,13.32
2022-09-21T00:11:08.771Z,15.35
2022-09-21T00:13:37.884Z,13.60
2022-09-21T00:16:08.422Z,13.63
2022-09-21T00:18:36.378Z,10.17
2022-09-21T00:21:08.048Z,12.10
2022-09-21T00:23:36.190Z,15.98
2022-09-21T00:26:13.508Z,11.50
2022-09-21T00:28:40.756Z,15.60
2022-09-21T00:31:12.171Z,9.80
2022-09-21T00:33:39.431Z,14.40
2022-09-21T00:36:07.916Z,16.00
2022-09-21T00:38:35.098Z,11.23
2022-09-21T00:41:02.099Z,15.03
2022-09-21T00:43:28.749Z,12.67
2022-09-21T00:46:07.306Z,11.73
2022-09-21T00:48:34.258Z,10.00
2022-09-21T00:51:06.475Z,15.88
2022-09-21T00:53:34.117Z,11.10
2022-09-21T00:56:02.721Z,14.77
2022-09-21T00:58:33.122Z,12.80
2022-09-21T01:01:00.543Z,10.20
2022-09-21T01:03:29.198Z,15.18
2022-09-21T01:05:56.519Z,11.63
2022-09-21T01:08:26.089Z,12.10
2022-09-21T01:11:08.383Z,12.65
2022-09-21T01:13:43.528Z,12.20
2022-09-21T01:16:12.670Z,12.50
2022-09-21T01:19:07.924Z,12.93
2022-09-21T01:22:03.417Z,11.88
2022-09-21T01:24:51.131Z,15.55
2022-09-21T01:27:32.127Z,10.05
2022-09-21T01:30:05.572Z,10.13
2022-09-21T01:32:33.738Z,16.70
2022-09-21T01:35:09.554Z,11.53
2022-09-21T01:37:40.248Z,11.83
2022-09-21T01:40:12.712Z,14.50
2022-09-21T01:42:41.023Z,10.73
2022-09-21T01:45:09.289Z,10.00
2022-09-21T01:47:37.522Z,11.88
2022-09-21T01:50:06.395Z,11.80
2022-09-21T01:52:48.182Z,10.48
2022-09-21T01:55:21.899Z,6.90
2022-09-21T01:58:12.116Z,11.65
2022-09-21T02:00:40.266Z,15.17
2022-09-21T02:03:16.091Z,13.70
2022-09-21T02:05:42.990Z,10.87
2022-09-21T02:08:10.433Z,9.73
2022-09-21T02:10:45.066Z,8.97
2022-09-21T02:13:14.407Z,12.97
2022-09-21T02:15:51.729Z,12.17
2022-09-21T02:18:57.764Z,10.70
2022-09-21T02:21:49.495Z,11.57
2022-09-21T02:24:27.684Z,10.13
2022-09-21T02:27:04.364Z,9.30
2022-09-21T02:29:45.467Z,11.67
2022-09-21T02:32:38.229Z,14.50
2022-09-21T02:35:28.441Z,12.38
2022-09-21T02:38:08.890Z,12.10
2022-09-21T02:40:41.171Z,12.30
2022-09-21T02:43:13.715Z,13.80
2022-09-21T02:45:45.291Z,12.07
2022-09-21T02:48:17.183Z,14.53
2022-09-21T02:50:52.842Z,10.52
2022-09-21T02:53:24.155Z,11.00
2022-09-21T02:55:55.743Z,10.97
2022-09-21T02:58:25.985Z,14.48
2022-09-21T03:00:52.943Z,11.30
2022-09-21T03:03:24.864Z,11.77
2022-09-21T03:05:53.554Z,10.23
2022-09-21T03:08:20.961Z,13.60
2022-09-21T03:10:51.152Z,10.97
2022-09-21T03:13:18.901Z,13.47
2022-09-21T03:15:46.131Z,12.43
2022-09-21T03:18:13.269Z,8.40
2022-09-21T03:20:46.028Z,12.73
2022-09-21T03:25:39.982Z,8.73
2022-09-21T03:28:06.932Z,11.63
2022-09-21T03:30:33.582Z,11.80
2022-09-21T03:33:00.231Z,8.33
2022-09-21T03:35:27.014Z,9.27
2022-09-21T03:37:55.340Z,13.80
2022-09-21T03:40:22.327Z,11.73
2022-09-21T03:42:49.328Z,16.90
2022-09-21T03:45:16.015Z,11.37
2022-09-21T03:47:42.982Z,13.03
2022-09-21T03:50:10.385Z,9.60
2022-09-21T03:52:38.633Z,23.60
2022-09-21T03:55:07.243Z,12.00
2022-09-21T03:57:34.539Z,10.30
2022-09-21T04:00:03.970Z,13.63
2022-09-21T04:02:32.115Z,9.97
2022-09-21T04:04:58.915Z,8.13
2022-09-21T04:07:26.352Z,12.37
2022-09-21T04:09:54.117Z,8.93
2022-09-21T04:12:23.904Z,12.17
2022-09-21T04:14:50.568Z,12.97
2022-09-21T04:17:17.323Z,10.53
2022-09-21T04:19:47.842Z,9.60
2022-09-21T04:22:14.866Z,10.53
2022-09-21T04:24:41.573Z,9.77
2022-09-21T04:27:08.816Z,11.53
2022-09-21T04:29:36.110Z,11.63
2022-09-21T04:32:03.293Z,13.90
2022-09-21T04:34:31.237Z,16.53
2022-09-21T04:36:58.591Z,14.43
2022-09-21T04:39:26.312Z,21.93
2022-09-21T04:41:53.227Z,23.77
2022-09-21T04:44:19.995Z,11.27
2022-09-21T04:46:47.179Z,24.73
2022-09-21T04:49:14.145Z,20.90
2022-09-21T04:51:40.892Z,17.07
2022-09-21T04:54:07.839Z,9.07
2022-09-21T04:56:34.995Z,10.07
2022-09-21T04:59:01.644Z,7.40
2022-09-21T05:01:28.972Z,7.50
2022-09-21T05:03:55.934Z,8.70
2022-09-21T05:06:22.587Z,9.93
2022-09-21T05:09:07.917Z,9.87
2022-09-21T05:11:34.681Z,53.27
2022-09-21T05:14:01.409Z,39.27
2022-09-21T05:16:28.096Z,46.30
2022-09-21T05:18:57.453Z,49.10
2022-09-21T05:21:24.194Z,123.83
2022-09-21T05:23:51.108Z,34.40
2022-09-21T05:26:17.822Z,36.87
2022-09-21T05:28:44.695Z,62.03
2022-09-21T05:31:18.046Z,22.07
2022-09-21T05:33:52.036Z,14.80
2022-09-21T05:36:30.727Z,15.43
2022-09-21T05:38:57.588Z,18.53
2022-09-21T05:41:24.448Z,13.47
2022-09-21T05:43:51.346Z,10.87
2022-09-21T05:46:32.915Z,20.20
2022-09-21T05:49:23.074Z,19.77
2022-09-21T05:52:03.048Z,17.20
2022-09-21T05:54:41.611Z,17.63
2022-09-21T05:57:30.683Z,17.80
2022-09-21T06:00:10.675Z,14.37
2022-09-21T06:03:24.559Z,14.10
2022-09-21T06:05:51.280Z,14.33
2022-09-21T06:08:17.947Z,10.60
2022-09-21T06:10:44.728Z,10.40
2022-09-21T06:13:11.753Z,22.37
2022-09-21T06:15:38.632Z,14.90
2022-09-21T06:18:08.932Z,12.63
2022-09-21T06:20:35.864Z,18.80
2022-09-21T06:23:06.820Z,33.50
2022-09-21T06:25:33.432Z,12.93
2022-09-21T06:28:07.791Z,9.40
2022-09-21T06:30:34.931Z,39.27
2022-09-21T06:33:02.498Z,42.10
2022-09-21T06:35:29.869Z,41.37
2022-09-21T06:38:00.713Z,112.10
2022-09-21T06:40:28.663Z,71.40
2022-09-21T06:42:59.591Z,51.17
2022-09-21T06:45:27.596Z,38.50
2022-09-21T06:47:54.332Z,14.17
2022-09-21T06:50:21.439Z,35.30
2022-09-21T06:52:48.145Z,38.03
2022-09-21T06:55:18.093Z,28.47
2022-09-21T06:57:45.041Z,25.27
2022-09-21T07:00:12.814Z,19.10
2022-09-21T07:02:43.507Z,14.57
2022-09-21T07:05:10.351Z,15.30
2022-09-21T07:07:36.989Z,14.40
2022-09-21T07:10:05.861Z,20.67
2022-09-21T07:12:36.063Z,16.67
2022-09-21T07:15:03.746Z,13.00
2022-09-21T07:17:38.299Z,14.87
2022-09-21T07:20:06.420Z,12.80
2022-09-21T07:22:33.187Z,19.17
2022-09-21T07:25:00.055Z,13.00
2022-09-21T07:27:28.074Z,14.33
2022-09-21T07:29:54.807Z,13.00
2022-09-21T07:32:21.732Z,17.52
2022-09-21T07:34:48.413Z,15.33
2022-09-21T07:37:15.292Z,14.70
2022-09-21T07:39:41.975Z,15.43
2022-09-21T07:42:08.768Z,15.90
2022-09-21T07:44:35.474Z,20.60
2022-09-21T07:47:03.510Z,14.15
2022-09-21T07:49:30.250Z,14.18
2022-09-21T07:52:01.386Z,15.13
2022-09-21T07:57:15.266Z,14.60
2022-09-21T07:59:41.921Z,15.10
2022-09-21T08:02:08.599Z,16.75
2022-09-21T08:04:35.308Z,15.50
2022-09-21T08:07:01.906Z,15.98
2022-09-21T08:09:28.540Z,18.73
2022-09-21T08:11:55.815Z,12.85
2022-09-21T08:14:26.819Z,13.90
2022-09-21T08:16:53.828Z,14.52
2022-09-21T08:19:21.053Z,8.68
2022-09-21T08:21:56.303Z,14.50
2022-09-21T08:24:25.900Z,14.20
2022-09-21T08:26:53.205Z,13.95
2022-09-21T08:29:19.935Z,16.20
2022-09-21T08:31:47.010Z,12.57
2022-09-21T08:34:14.338Z,11.52
2022-09-21T08:36:41.214Z,10.88
2022-09-21T08:39:09.048Z,8.75
2022-09-21T08:41:58.277Z,9.00
2022-09-21T08:44:29.092Z,10.57
2022-09-21T08:47:09.787Z,9.68
2022-09-21T08:49:38.277Z,14.15
2022-09-21T08:52:14.748Z,7.05
2022-09-21T08:54:46.970Z,6.60
2022-09-21T08:57:15.093Z,11.85
2022-09-21T08:59:47.195Z,9.30
2022-09-21T09:02:52.535Z,9.30
2022-09-21T09:05:44.190Z,6.85
2022-09-21T09:08:35.430Z,8.10
2022-09-21T09:11:06.460Z,7.55
2022-09-21T09:13:55.922Z,6.95
2022-09-21T09:16:47.810Z,6.60
2022-09-21T09:19:29.050Z,6.20
2022-09-21T09:21:56.648Z,6.97
2022-09-21T09:24:42.669Z,8.80
2022-09-21T09:27:20.872Z,6.60
2022-09-21T09:30:04.226Z,5.97
2022-09-21T09:32:43.487Z,6.07
2022-09-21T09:35:25.461Z,4.93
2022-09-21T09:37:55.174Z,4.60
2022-09-21T09:40:55.164Z,8.88
2022-09-21T09:43:38.715Z,6.85
2022-09-21T09:46:20.559Z,4.97
2022-09-21T09:49:05.005Z,5.70
2022-09-21T09:51:35.253Z,7.57
2022-09-21T09:54:06.894Z,4.93
2022-09-21T09:56:36.200Z,4.13
2022-09-21T09:59:08.301Z,5.82
2022-09-21T10:01:44.420Z,5.57
2022-09-21T10:04:12.964Z,6.25
2022-09-21T10:06:45.349Z,8.18
2022-09-21T10:09:19.474Z,7.35
2022-09-21T10:11:46.608Z,5.68
2022-09-21T10:14:21.202Z,4.82
2022-09-21T10:16:51.672Z,4.10
2022-09-21T10:19:24.030Z,2.70
2022-09-21T10:22:01.629Z,2.90
2022-09-21T10:24:34.065Z,3.05
2022-09-21T10:27:14.441Z,4.20
2022-09-21T10:29:43.391Z,3.00
2022-09-21T10:32:14.940Z,4.53
2022-09-21T10:35:00.476Z,2.90
2022-09-21T10:37:37.280Z,3.33
2022-09-21T10:40:05.325Z,2.17
2022-09-21T10:42:36.511Z,3.10
2022-09-21T10:45:20.224Z,4.50
2022-09-21T10:47:53.077Z,3.38
2022-09-21T10:50:26.101Z,1.45
2022-09-21T10:53:01.177Z,4.20
2022-09-21T10:55:30.138Z,4.50
2022-09-21T10:57:57.083Z,5.15
2022-09-21T11:00:34.994Z,2.20
2022-09-21T11:03:35.797Z,2.47
2022-09-21T11:06:15.394Z,3.28
2022-09-21T11:08:50.104Z,2.85
2022-09-21T11:11:27.288Z,2.60
2022-09-21T11:14:05.053Z,1.63
2022-09-21T11:16:42.063Z,1.50
2022-09-21T11:19:18.855Z,4.38
2022-09-21T11:22:02.435Z,1.27
2022-09-21T11:24:37.140Z,1.17
2022-09-21T11:27:11.554Z,3.97
2022-09-21T11:29:51.518Z,2.92
2022-09-21T11:32:49.476Z,1.58
2022-09-21T11:35:33.019Z,1.30
2022-09-21T11:38:34.281Z,1.23
2022-09-21T11:41:18.882Z,1.23
2022-09-21T11:43:51.540Z,1.15
2022-09-21T11:46:40.844Z,2.88
2022-09-21T11:49:40.177Z,1.95
2022-09-21T11:52:32.397Z,1.42
2022-09-21T11:55:16.861Z,2.03
2022-09-21T11:58:10.664Z,0.85
2022-09-21T12:00:45.721Z,2.65
2022-09-21T12:03:38.237Z,3.28
2022-09-21T12:06:28.390Z,2.80
2022-09-21T12:09:10.507Z,3.05
2022-09-21T12:11:44.778Z,3.78
2022-09-21T12:14:34.517Z,2.47
2022-09-21T12:17:24.471Z,0.93
2022-09-21T12:20:05.315Z,2.05
2022-09-21T12:22:35.206Z,0.50
2022-09-21T12:25:10.911Z,0.50
2022-09-21T12:27:40.134Z,2.67
2022-09-21T12:30:17.119Z,1.65
2022-09-21T12:32:58.119Z,1.77
2022-09-21T12:35:45.067Z,4.35
2022-09-21T12:41:37.368Z,1.05
2022-09-21T12:44:20.144Z,1.45
2022-09-21T12:47:09.489Z,1.05
2022-09-21T12:49:45.484Z,1.60
2022-09-21T12:52:24.737Z,1.30
2022-09-21T12:55:19.381Z,0.65
2022-09-21T12:58:14.499Z,2.13
2022-09-21T13:00:57.609Z,1.35
2022-09-21T13:03:36.214Z,1.67
2022-09-21T13:06:15.924Z,2.08
2022-09-21T13:08:44.767Z,0.75
2022-09-21T13:11:11.666Z,2.13
2022-09-21T13:13:41.655Z,0.95
2022-09-21T13:16:31.037Z,1.45
2022-09-21T13:19:03.443Z,2.03
2022-09-21T13:21:32.358Z,1.73
2022-09-21T13:24:01.483Z,1.50
2022-09-21T13:26:40.943Z,1.55
2022-09-21T13:29:19.902Z,3.47
2022-09-21T13:32:07.797Z,1.33
2022-09-21T13:34:45.378Z,1.08
2022-09-21T13:37:11.950Z,1.33
2022-09-21T13:39:50.636Z,1.23
2022-09-21T13:42:29.410Z,1.60
2022-09-21T13:44:59.978Z,1.25
2022-09-21T13:47:32.271Z,1.98
2022-09-21T13:50:12.642Z,0.80
2022-09-21T13:52:44.743Z,1.27
2022-09-21T13:55:28.703Z,1.15
2022-09-21T13:57:57.210Z,0.88
2022-09-21T14:00:36.402Z,1.52
2022-09-21T14:03:22.461Z,1.02
2022-09-21T14:06:20.506Z,1.08
2022-09-21T14:08:58.128Z,1.23
2022-09-21T14:11:39.291Z,1.65
2022-09-21T14:14:12.329Z,1.65
2022-09-21T14:16:39.576Z,3.17
2022-09-21T14:19:18.106Z,2.28
2022-09-21T14:22:05.561Z,2.00
2022-09-21T14:24:38.581Z,3.70
2022-09-21T14:27:31.657Z,1.10
2022-09-21T14:30:22.244Z,2.03
2022-09-21T14:33:07.411Z,2.22
2022-09-21T14:35:37.904Z,2.00
2022-09-21T14:38:12.738Z,0.60
2022-09-21T14:40:42.433Z,0.85
2022-09-21T14:43:12.532Z,1.25
2022-09-21T14:46:11.885Z,1.13
2022-09-21T14:49:16.119Z,2.15
2022-09-21T14:51:55.768Z,0.60
2022-09-21T14:55:02.744Z,0.50
2022-09-21T14:57:54.103Z,3.00
2022-09-21T15:00:35.578Z,1.10
2022-09-21T15:03:30.713Z,0.68
2022-09-21T15:06:31.066Z,0.75
2022-09-21T15:09:22.532Z,1.58
2022-09-21T15:11:56.699Z,0.60
2022-09-21T15:14:32.430Z,0.70
2022-09-21T15:16:59.246Z,1.23
2022-09-21T15:19:30.152Z,1.35
2022-09-21T15:22:15.202Z,0.70
2022-09-21T15:24:57.290Z,0.52
2022-09-21T15:27:33.473Z,1.38
2022-09-21T15:30:03.227Z,2.20
2022-09-21T15:32:47.651Z,1.60
2022-09-21T15:35:20.235Z,4.75
2022-09-21T15:37:47.612Z,2.15
2022-09-21T15:40:23.374Z,1.08
2022-09-21T15:43:15.904Z,1.30
2022-09-21T15:45:51.646Z,1.73
2022-09-21T15:48:19.913Z,3.08
2022-09-21T15:50:50.657Z,1.48
2022-09-21T15:53:23.746Z,3.08
2022-09-21T15:55:50.716Z,1.50
2022-09-21T15:58:29.885Z,2.80
2022-09-21T16:00:57.769Z,1.13
2022-09-21T16:03:26.064Z,1.55
2022-09-21T16:05:55.453Z,1.35
2022-09-21T16:08:34.630Z,1.88
2022-09-21T16:11:26.282Z,1.42
2022-09-21T16:14:32.827Z,1.88
2022-09-21T16:17:27.221Z,1.63
2022-09-21T16:19:54.008Z,1.95
2022-09-21T16:22:30.278Z,2.50
2022-09-21T16:24:59.489Z,2.97
2022-09-21T16:27:28.878Z,2.78
2022-09-21T16:29:57.299Z,1.30
2022-09-21T16:32:32.077Z,4.78
2022-09-21T16:35:31.715Z,2.15
2022-09-21T16:37:59.166Z,1.33
2022-09-21T16:40:28.185Z,1.52
2022-09-21T16:42:55.560Z,0.90
2022-09-21T16:45:31.810Z,1.38
2022-09-21T16:47:59.567Z,1.75
2022-09-21T16:50:26.532Z,1.60
2022-09-21T16:52:53.164Z,3.55
2022-09-21T16:55:22.468Z,1.73
2022-09-21T16:57:51.089Z,1.17
2022-09-21T17:00:22.152Z,1.85
2022-09-21T17:02:49.378Z,2.47
2022-09-21T17:05:19.412Z,0.85
2022-09-21T17:07:54.319Z,1.77
2022-09-21T17:10:24.317Z,0.93
2022-09-21T17:12:51.956Z,0.90
2022-09-21T17:15:18.723Z,1.00
2022-09-21T17:17:45.403Z,2.45
2022-09-21T17:20:21.520Z,3.38
2022-09-21T17:22:48.592Z,2.15
2022-09-21T17:25:15.354Z,1.65
2022-09-21T17:27:42.431Z,3.80
2022-09-21T17:30:13.374Z,2.33
2022-09-21T17:32:42.624Z,3.25
2022-09-21T17:35:33.985Z,1.52
2022-09-21T17:38:00.679Z,2.60
2022-09-21T17:40:27.647Z,3.35
2022-09-21T17:43:05.178Z,4.45
2022-09-21T17:45:42.612Z,1.60
2022-09-21T17:48:13.872Z,2.05
2022-09-21T17:50:40.621Z,2.50
2022-09-21T17:53:28.002Z,1.63
2022-09-21T17:55:57.886Z,3.75
2022-09-21T17:58:54.001Z,6.65
2022-09-21T18:01:39.680Z,2.60
2022-09-21T18:04:08.346Z,1.52
2022-09-21T18:06:35.448Z,3.28
2022-09-21T18:09:03.246Z,1.58
2022-09-21T18:12:07.609Z,1.67
2022-09-21T18:14:48.633Z,1.15
2022-09-21T18:17:48.277Z,2.70
2022-09-21T18:20:23.639Z,1.60
2022-09-21T18:23:02.363Z,1.42
2022-09-21T18:25:34.335Z,2.95
2022-09-21T18:28:17.217Z,1.92
2022-09-21T18:33:31.192Z,3.33
2022-09-21T18:36:10.575Z,3.50
2022-09-21T18:38:53.184Z,8.48
2022-09-21T18:41:46.074Z,4.60
2022-09-21T18:44:26.180Z,5.95
2022-09-21T18:47:11.905Z,4.85
2022-09-21T18:50:03.942Z,2.05
2022-09-21T18:52:39.665Z,2.08
2022-09-21T18:55:18.339Z,3.80
2022-09-21T18:57:45.462Z,6.20
2022-09-21T19:00:13.475Z,4.13
2022-09-21T19:02:53.499Z,5.05
2022-09-21T19:05:27.722Z,3.67
2022-09-21T19:08:09.353Z,4.43
2022-09-21T19:10:44.301Z,4.70
2022-09-21T19:13:31.703Z,2.97
2022-09-21T19:16:05.203Z,3.85
2022-09-21T19:18:50.580Z,4.28
2022-09-21T19:21:28.216Z,6.65
2022-09-21T19:24:06.548Z,5.18
2022-09-21T19:26:48.164Z,6.28
2022-09-21T19:29:19.870Z,5.50
2022-09-21T19:31:46.957Z,6.80
2022-09-21T19:34:16.634Z,4.18
2022-09-21T19:36:47.201Z,6.20
2022-09-21T19:39:14.497Z,5.50
2022-09-21T19:41:49.230Z,6.70
2022-09-21T19:44:44.628Z,7.35
2022-09-21T19:47:25.698Z,5.70
2022-09-21T19:49:54.614Z,8.45
2022-09-21T19:52:28.723Z,7.07
2022-09-21T19:55:14.208Z,4.85
2022-09-21T19:58:00.125Z,5.75
2022-09-21T20:00:27.000Z,6.25
2022-09-21T20:03:03.471Z,6.57
2022-09-21T20:05:35.350Z,3.78
2022-09-21T20:08:16.474Z,6.43
2022-09-21T20:11:00.624Z,8.15
2022-09-21T20:13:33.064Z,8.23
2022-09-21T20:16:19.064Z,8.52
2022-09-21T20:18:55.074Z,5.60
2022-09-21T20:21:22.674Z,6.53
2022-09-21T20:23:58.158Z,8.52
2022-09-21T20:26:26.472Z,4.93
2022-09-21T20:28:53.867Z,5.60
2022-09-21T20:31:22.459Z,6.70
2022-09-21T20:33:49.592Z,4.05
2022-09-21T20:36:16.258Z,5.00
2022-09-21T20:38:42.950Z,4.88
2022-09-21T20:41:12.020Z,6.75
2022-09-21T20:43:38.945Z,6.28
2022-09-21T20:46:05.809Z,4.57
2022-09-21T20:48:32.822Z,4.82
2022-09-21T20:51:01.558Z,5.57
2022-09-21T20:53:28.256Z,6.05
2022-09-21T20:55:57.194Z,5.45
2022-09-21T20:58:24.815Z,6.85
2022-09-21T21:00:57.911Z,6.15
2022-09-21T21:03:25.330Z,6.50
2022-09-21T21:05:51.970Z,6.45
2022-09-21T21:08:18.845Z,6.88
2022-09-21T21:10:46.914Z,5.53
2022-09-21T21:13:13.704Z,4.90
2022-09-21T21:15:40.647Z,7.13
2022-09-21T21:18:11.187Z,4.93
2022-09-21T21:20:37.886Z,5.53
2022-09-21T21:23:07.925Z,5.65
2022-09-21T21:25:35.265Z,5.90
2022-09-21T21:28:02.497Z,7.50
2022-09-21T21:30:29.097Z,9.27
2022-09-21T21:32:56.171Z,8.05
2022-09-21T21:35:22.882Z,6.30
2022-09-21T21:37:49.742Z,7.82
2022-09-21T21:40:16.444Z,5.07
2022-09-21T21:42:43.120Z,5.93
2022-09-21T21:45:12.882Z,7.80
2022-09-21T21:47:40.832Z,7.05
2022-09-21T21:50:09.800Z,5.88
2022-09-21T21:52:36.854Z,6.22
2022-09-21T21:55:04.533Z,6.25
2022-09-21T21:57:31.187Z,6.38
2022-09-21T21:59:57.974Z,7.15
2022-09-21T22:02:24.732Z,6.90
2022-09-21T22:04:51.471Z,7.15
2022-09-21T22:07:18.534Z,7.45
2022-09-21T22:09:45.189Z,6.50
2022-09-21T22:12:12.031Z,6.93
2022-09-21T22:14:38.640Z,7.88
2022-09-21T22:17:05.716Z,7.68
2022-09-21T22:19:33.053Z,8.52
2022-09-21T22:21:59.961Z,8.70
2022-09-21T22:24:26.848Z,6.68
2022-09-21T22:26:53.596Z,8.07
2022-09-21T22:29:20.317Z,9.48
2022-09-21T22:31:49.138Z,6.00
2022-09-21T22:34:16.401Z,8.77
2022-09-21T22:36:45.924Z,6.53
2022-09-21T22:39:13.266Z,7.22
2022-09-21T22:41:41.799Z,9.00
2022-09-21T22:44:09.246Z,6.18
2022-09-21T22:46:36.558Z,7.20
2022-09-21T22:49:03.609Z,9.02
2022-09-21T22:51:30.395Z,7.18
2022-09-21T22:53:57.882Z,7.60
2022-09-21T22:56:29.053Z,6.57
2022-09-21T22:58:57.822Z,6.65
2022-09-21T23:01:38.714Z,9.25
2022-09-21T23:04:10.999Z,7.07
2022-09-21T23:06:39.522Z,5.75
2022-09-21T23:09:09.548Z,7.68
2022-09-21T23:11:38.721Z,5.65
2022-09-21T23:14:05.655Z,8.45
2022-09-21T23:16:32.506Z,5.13
2022-09-21T23:19:00.492Z,10.75
2022-09-21T23:21:29.638Z,8.45
2022-09-21T23:23:59.836Z,7.35
2022-09-21T23:26:28.137Z,5.00
2022-09-21T23:28:57.135Z,9.13
2022-09-21T23:31:26.640Z,9.20
2022-09-21T23:33:56.418Z,8.00
2022-09-21T23:36:28.434Z,9.67
2022-09-21T23:38:56.102Z,9.60
2022-09-21T23:41:34.178Z,7.43
2022-09-21T23:44:01.669Z,5.90
2022-09-21T23:46:34.225Z,6.50
2022-09-21T23:49:01.279Z,6.85
2022-09-21T23:51:28.204Z,5.60
2022-09-21T23:53:54.889Z,5.93
2022-09-21T23:56:22.780Z,8.23
2022-09-21T23:58:49.865Z,6.40
